sensor_id;sensor_type;location;lat;lon;timestamp;pressure;altitude;pressure_sealevel;temperature;humidity
70127;BME280;57491;42.694;23.314;2023-02-02T00:02:10;95195.44;;;7.61;44.71
70127;BME280;57491;42.694;23.314;2023-02-02T00:04:37;95203.84;;;7.55;43.07
70127;BME280;57491;42.694;23.314;2023-02-02T00:07:04;95203.50;;;7.50;42.00
70127;BME280;57491;42.694;23.314;2023-02-02T00:09:32;95193.50;;;7.47;43.96
70127;BME280;57491;42.694;23.314;2023-02-02T00:12:00;95187.66;;;7.45;41.57
70127;BME280;57491;42.694;23.314;2023-02-02T00:14:28;95184.59;;;7.50;42.34
70127;BME280;57491;42.694;23.314;2023-02-02T00:16:56;95185.69;;;7.39;43.04
70127;BME280;57491;42.694;23.314;2023-02-02T00:19:25;95187.31;;;7.40;45.43
70127;BME280;57491;42.694;23.314;2023-02-02T00:21:53;95188.44;;;7.38;41.84
70127;BME280;57491;42.694;23.314;2023-02-02T00:24:20;95183.22;;;7.30;42.93
70127;BME280;57491;42.694;23.314;2023-02-02T00:26:51;95198.13;;;7.36;43.19
70127;BME280;57491;42.694;23.314;2023-02-02T00:29:20;95199.41;;;7.32;44.66
70127;BME280;57491;42.694;23.314;2023-02-02T00:31:49;95199.91;;;7.43;47.31
70127;BME280;57491;42.694;23.314;2023-02-02T00:34:17;95199.78;;;7.53;45.91
70127;BME280;57491;42.694;23.314;2023-02-02T00:36:45;95200.78;;;7.52;43.34
70127;BME280;57491;42.694;23.314;2023-02-02T00:39:14;95211.16;;;7.60;44.82
70127;BME280;57491;42.694;23.314;2023-02-02T00:41:43;95207.41;;;7.54;42.59
70127;BME280;57491;42.694;23.314;2023-02-02T00:44:10;95210.47;;;7.50;41.88
70127;BME280;57491;42.694;23.314;2023-02-02T00:46:56;95211.91;;;7.52;41.80
70127;BME280;57491;42.694;23.314;2023-02-02T00:49:23;95212.84;;;7.43;46.65
70127;BME280;57491;42.694;23.314;2023-02-02T00:51:50;95214.31;;;7.38;44.38
70127;BME280;57491;42.694;23.314;2023-02-02T00:54:18;95209.88;;;7.30;44.67
70127;BME280;57491;42.694;23.314;2023-02-02T00:56:45;95209.50;;;7.17;43.38
70127;BME280;57491;42.694;23.314;2023-02-02T00:59:12;95184.31;;;6.85;46.14
70127;BME280;57491;42.694;23.314;2023-02-02T01:01:39;95195.50;;;6.94;45.15
70127;BME280;57491;42.694;23.314;2023-02-02T01:04:07;95191.25;;;6.85;45.55
70127;BME280;57491;42.694;23.314;2023-02-02T01:06:34;95178.59;;;6.73;45.93
70127;BME280;57491;42.694;23.314;2023-02-02T01:09:01;95185.94;;;6.86;49.81
70127;BME280;57491;42.694;23.314;2023-02-02T01:11:29;95186.50;;;6.98;48.13
70127;BME280;57491;42.694;23.314;2023-02-02T01:13:56;95180.38;;;7.07;50.70
70127;BME280;57491;42.694;23.314;2023-02-02T01:16:23;95178.81;;;7.14;49.21
70127;BME280;57491;42.694;23.314;2023-02-02T01:18:51;95172.69;;;7.15;49.23
70127;BME280;57491;42.694;23.314;2023-02-02T01:21:19;95176.53;;;7.11;46.55
70127;BME280;57491;42.694;23.314;2023-02-02T01:23:46;95176.19;;;7.06;47.08
70127;BME280;57491;42.694;23.314;2023-02-02T01:26:14;95171.72;;;6.90;46.53
70127;BME280;57491;42.694;23.314;2023-02-02T01:28:42;95161.16;;;6.76;46.81
70127;BME280;57491;42.694;23.314;2023-02-02T01:31:11;95172.41;;;6.66;47.88
70127;BME280;57491;42.694;23.314;2023-02-02T01:33:39;95172.22;;;6.60;48.73
70127;BME280;57491;42.694;23.314;2023-02-02T01:36:10;95169.19;;;6.64;48.82
70127;BME280;57491;42.694;23.314;2023-02-02T01:38:39;95168.63;;;6.53;47.80
70127;BME280;57491;42.694;23.314;2023-02-02T01:41:07;95166.44;;;6.40;49.59
70127;BME280;57491;42.694;23.314;2023-02-02T01:43:52;95167.06;;;6.34;49.09
70127;BME280;57491;42.694;23.314;2023-02-02T01:46:21;95170.16;;;6.20;49.80
70127;BME280;57491;42.694;23.314;2023-02-02T01:48:52;95158.81;;;5.95;50.08
70127;BME280;57491;42.694;23.314;2023-02-02T01:51:21;95147.47;;;5.70;50.38
70127;BME280;57491;42.694;23.314;2023-02-02T01:53:53;95157.53;;;5.64;51.17
70127;BME280;57491;42.694;23.314;2023-02-02T01:56:25;95146.34;;;5.55;51.30
70127;BME280;57491;42.694;23.314;2023-02-02T01:58:54;95151.19;;;5.40;51.71
70127;BME280;57491;42.694;23.314;2023-02-02T02:01:22;95148.47;;;5.15;52.40
70127;BME280;57491;42.694;23.314;2023-02-02T02:03:49;95144.19;;;5.06;53.05
70127;BME280;57491;42.694;23.314;2023-02-02T02:06:17;95132.50;;;5.11;53.41
70127;BME280;57491;42.694;23.314;2023-02-02T02:08:48;95147.13;;;5.38;56.28
70127;BME280;57491;42.694;23.314;2023-02-02T02:11:18;95147.38;;;5.45;52.32
70127;BME280;57491;42.694;23.314;2023-02-02T02:13:45;95147.28;;;5.54;55.20
70127;BME280;57491;42.694;23.314;2023-02-02T02:16:39;95144.44;;;5.57;55.31
70127;BME280;57491;42.694;23.314;2023-02-02T02:19:19;95144.50;;;5.65;55.14
70127;BME280;57491;42.694;23.314;2023-02-02T02:21:58;95150.53;;;5.56;53.98
70127;BME280;57491;42.694;23.314;2023-02-02T02:28:26;95158.66;;;5.16;54.52
70127;BME280;57491;42.694;23.314;2023-02-02T02:31:42;95147.06;;;5.03;54.86
70127;BME280;57491;42.694;23.314;2023-02-02T02:34:14;95156.50;;;5.12;55.28
70127;BME280;57491;42.694;23.314;2023-02-02T02:36:47;95149.00;;;5.18;53.72
70127;BME280;57491;42.694;23.314;2023-02-02T02:39:19;95151.34;;;5.12;53.68
70127;BME280;57491;42.694;23.314;2023-02-02T02:41:57;95144.19;;;5.06;53.88
70127;BME280;57491;42.694;23.314;2023-02-02T02:44:26;95153.00;;;5.13;53.91
70127;BME280;57491;42.694;23.314;2023-02-02T02:46:56;95155.69;;;5.11;52.98
70127;BME280;57491;42.694;23.314;2023-02-02T02:49:24;95147.06;;;5.03;54.96
70127;BME280;57491;42.694;23.314;2023-02-02T02:51:52;95144.66;;;5.19;55.40
70127;BME280;57491;42.694;23.314;2023-02-02T02:54:22;95143.16;;;5.26;52.59
70127;BME280;57491;42.694;23.314;2023-02-02T02:57:07;95148.31;;;5.26;52.80
70127;BME280;57491;42.694;23.314;2023-02-02T02:59:48;95148.94;;;5.28;53.68
70127;BME280;57491;42.694;23.314;2023-02-02T03:02:29;95142.03;;;5.28;53.62
70127;BME280;57491;42.694;23.314;2023-02-02T03:05:08;95143.38;;;5.32;53.33
70127;BME280;57491;42.694;23.314;2023-02-02T03:07:40;95140.19;;;5.21;53.26
70127;BME280;57491;42.694;23.314;2023-02-02T03:10:10;95133.94;;;4.96;52.99
70127;BME280;57491;42.694;23.314;2023-02-02T03:12:43;95151.06;;;5.15;52.83
70127;BME280;57491;42.694;23.314;2023-02-02T03:15:11;95148.22;;;5.18;52.62
70127;BME280;57491;42.694;23.314;2023-02-02T03:17:40;95145.47;;;5.19;54.67
70127;BME280;57491;42.694;23.314;2023-02-02T03:20:09;95142.16;;;5.27;54.96
70127;BME280;57491;42.694;23.314;2023-02-02T03:22:36;95143.59;;;5.39;55.57
70127;BME280;57491;42.694;23.314;2023-02-02T03:25:05;95142.34;;;5.43;54.87
70127;BME280;57491;42.694;23.314;2023-02-02T03:27:32;95146.84;;;5.41;53.04
70127;BME280;57491;42.694;23.314;2023-02-02T03:29:59;95136.22;;;5.26;52.56
70127;BME280;57491;42.694;23.314;2023-02-02T03:32:26;95144.09;;;5.25;53.07
70127;BME280;57491;42.694;23.314;2023-02-02T03:34:54;95144.47;;;5.30;54.33
70127;BME280;57491;42.694;23.314;2023-02-02T03:37:22;95146.69;;;5.25;55.81
70127;BME280;57491;42.694;23.314;2023-02-02T03:39:49;95145.09;;;5.14;53.64
70127;BME280;57491;42.694;23.314;2023-02-02T03:42:16;95145.34;;;5.21;54.74
70127;BME280;57491;42.694;23.314;2023-02-02T03:44:42;95144.41;;;5.22;53.86
70127;BME280;57491;42.694;23.314;2023-02-02T03:47:09;95145.88;;;4.97;54.36
70127;BME280;57491;42.694;23.314;2023-02-02T03:49:36;95140.66;;;4.79;54.46
70127;BME280;57491;42.694;23.314;2023-02-02T03:52:05;95149.38;;;4.69;54.87
70127;BME280;57491;42.694;23.314;2023-02-02T03:54:32;95145.91;;;4.50;56.51
70127;BME280;57491;42.694;23.314;2023-02-02T03:56:59;95158.56;;;4.34;56.50
70127;BME280;57491;42.694;23.314;2023-02-02T03:59:26;95150.03;;;4.24;57.24
70127;BME280;57491;42.694;23.314;2023-02-02T04:01:53;95153.06;;;4.00;57.03
70127;BME280;57491;42.694;23.314;2023-02-02T04:04:20;95157.41;;;3.90;58.02
70127;BME280;57491;42.694;23.314;2023-02-02T04:06:47;95169.56;;;3.98;57.62
70127;BME280;57491;42.694;23.314;2023-02-02T04:09:15;95175.00;;;4.04;57.18
70127;BME280;57491;42.694;23.314;2023-02-02T04:11:43;95163.88;;;4.23;58.79
70127;BME280;57491;42.694;23.314;2023-02-02T04:14:10;95163.00;;;4.42;61.47
70127;BME280;57491;42.694;23.314;2023-02-02T04:16:37;95165.03;;;4.48;58.91
70127;BME280;57491;42.694;23.314;2023-02-02T04:19:04;95169.34;;;4.57;59.33
70127;BME280;57491;42.694;23.314;2023-02-02T04:21:31;95179.47;;;4.68;60.40
70127;BME280;57491;42.694;23.314;2023-02-02T04:23:58;95178.50;;;4.69;56.32
70127;BME280;57491;42.694;23.314;2023-02-02T04:26:26;95169.19;;;4.68;56.34
70127;BME280;57491;42.694;23.314;2023-02-02T04:28:53;95172.69;;;4.67;57.94
70127;BME280;57491;42.694;23.314;2023-02-02T04:31:20;95170.13;;;4.67;56.12
70127;BME280;57491;42.694;23.314;2023-02-02T04:33:47;95170.69;;;4.61;54.97
70127;BME280;57491;42.694;23.314;2023-02-02T04:36:14;95164.28;;;4.65;56.45
70127;BME280;57491;42.694;23.314;2023-02-02T04:38:41;95155.19;;;4.71;57.12
70127;BME280;57491;42.694;23.314;2023-02-02T04:41:10;95161.72;;;4.65;58.77
70127;BME280;57491;42.694;23.314;2023-02-02T04:43:40;95166.25;;;4.54;56.81
70127;BME280;57491;42.694;23.314;2023-02-02T04:46:07;95178.63;;;4.31;56.50
70127;BME280;57491;42.694;23.314;2023-02-02T04:48:34;95172.41;;;4.14;57.22
70127;BME280;57491;42.694;23.314;2023-02-02T04:51:03;95176.34;;;4.18;59.48
70127;BME280;57491;42.694;23.314;2023-02-02T04:53:31;95159.81;;;4.01;58.10
70127;BME280;57491;42.694;23.314;2023-02-02T04:56:04;95180.28;;;4.03;58.45
70127;BME280;57491;42.694;23.314;2023-02-02T04:58:31;95177.69;;;4.03;61.33
70127;BME280;57491;42.694;23.314;2023-02-02T05:01:00;95177.16;;;4.09;58.02
70127;BME280;57491;42.694;23.314;2023-02-02T05:03:27;95186.50;;;4.00;58.71
70127;BME280;57491;42.694;23.314;2023-02-02T05:06:00;95182.03;;;4.02;58.88
70127;BME280;57491;42.694;23.314;2023-02-02T05:08:27;95172.28;;;4.06;59.99
70127;BME280;57491;42.694;23.314;2023-02-02T05:10:54;95181.09;;;3.84;57.86
70127;BME280;57491;42.694;23.314;2023-02-02T05:13:21;95180.53;;;3.81;57.59
70127;BME280;57491;42.694;23.314;2023-02-02T05:15:48;95181.22;;;4.02;62.06
70127;BME280;57491;42.694;23.314;2023-02-02T05:18:16;95175.53;;;3.98;57.94
70127;BME280;57491;42.694;23.314;2023-02-02T05:20:44;95174.44;;;4.01;59.89
70127;BME280;57491;42.694;23.314;2023-02-02T05:23:11;95167.00;;;3.88;57.96
70127;BME280;57491;42.694;23.314;2023-02-02T05:25:38;95167.81;;;3.98;60.05
70127;BME280;57491;42.694;23.314;2023-02-02T05:28:05;95166.06;;;3.99;57.89
70127;BME280;57491;42.694;23.314;2023-02-02T05:30:32;95172.03;;;3.99;60.81
70127;BME280;57491;42.694;23.314;2023-02-02T05:32:59;95178.91;;;4.09;60.00
70127;BME280;57491;42.694;23.314;2023-02-02T05:35:27;95183.13;;;3.90;57.42
70127;BME280;57491;42.694;23.314;2023-02-02T05:37:54;95182.84;;;3.84;61.52
70127;BME280;57491;42.694;23.314;2023-02-02T05:40:21;95186.91;;;3.86;58.59
70127;BME280;57491;42.694;23.314;2023-02-02T05:42:48;95185.28;;;3.85;59.12
70127;BME280;57491;42.694;23.314;2023-02-02T05:45:15;95182.31;;;3.80;58.08
70127;BME280;57491;42.694;23.314;2023-02-02T05:47:42;95190.00;;;3.71;60.60
70127;BME280;57491;42.694;23.314;2023-02-02T05:50:10;95177.31;;;3.69;59.65
70127;BME280;57491;42.694;23.314;2023-02-02T05:52:39;95179.88;;;3.69;59.78
70127;BME280;57491;42.694;23.314;2023-02-02T05:55:08;95180.13;;;3.85;61.78
70127;BME280;57491;42.694;23.314;2023-02-02T05:57:35;95187.44;;;3.90;58.40
70127;BME280;57491;42.694;23.314;2023-02-02T06:00:03;95187.72;;;3.77;57.30
70127;BME280;57491;42.694;23.314;2023-02-02T06:02:31;95186.75;;;3.49;58.22
70127;BME280;57491;42.694;23.314;2023-02-02T06:04:58;95193.63;;;3.49;59.89
70127;BME280;57491;42.694;23.314;2023-02-02T06:07:25;95195.94;;;3.52;57.89
70127;BME280;57491;42.694;23.314;2023-02-02T06:09:53;95188.78;;;3.55;60.07
70127;BME280;57491;42.694;23.314;2023-02-02T06:12:20;95193.13;;;3.55;57.94
70127;BME280;57491;42.694;23.314;2023-02-02T06:14:47;95194.50;;;3.69;60.74
70127;BME280;57491;42.694;23.314;2023-02-02T06:17:14;95198.56;;;3.90;61.64
70127;BME280;57491;42.694;23.314;2023-02-02T06:19:41;95197.06;;;3.97;57.48
70127;BME280;57491;42.694;23.314;2023-02-02T06:22:08;95200.03;;;4.22;57.06
70127;BME280;57491;42.694;23.314;2023-02-02T06:24:35;95208.56;;;4.32;55.59
70127;BME280;57491;42.694;23.314;2023-02-02T06:27:04;95209.34;;;4.42;55.67
70127;BME280;57491;42.694;23.314;2023-02-02T06:29:31;95221.75;;;4.66;56.32
70127;BME280;57491;42.694;23.314;2023-02-02T06:31:58;95214.84;;;4.76;56.57
70127;BME280;57491;42.694;23.314;2023-02-02T06:34:25;95226.59;;;4.78;56.64
70127;BME280;57491;42.694;23.314;2023-02-02T06:36:52;95220.59;;;4.97;55.59
70127;BME280;57491;42.694;23.314;2023-02-02T06:39:19;95224.78;;;4.98;54.59
70127;BME280;57491;42.694;23.314;2023-02-02T06:41:46;95233.06;;;4.92;55.46
70127;BME280;57491;42.694;23.314;2023-02-02T06:44:14;95225.34;;;4.92;55.50
70127;BME280;57491;42.694;23.314;2023-02-02T06:46:42;95228.41;;;5.05;56.39
70127;BME280;57491;42.694;23.314;2023-02-02T06:49:09;95221.56;;;5.23;55.06
70127;BME280;57491;42.694;23.314;2023-02-02T06:51:36;95215.94;;;5.37;55.73
70127;BME280;57491;42.694;23.314;2023-02-02T06:54:03;95212.28;;;5.40;55.88
70127;BME280;57491;42.694;23.314;2023-02-02T06:56:30;95206.13;;;5.41;53.08
70127;BME280;57491;42.694;23.314;2023-02-02T06:58:58;95216.63;;;5.39;49.91
70127;BME280;57491;42.694;23.314;2023-02-02T07:01:26;95226.56;;;5.52;50.30
70127;BME280;57491;42.694;23.314;2023-02-02T07:03:53;95239.44;;;5.79;49.63
70127;BME280;57491;42.694;23.314;2023-02-02T07:06:21;95243.72;;;5.98;51.86
70127;BME280;57491;42.694;23.314;2023-02-02T07:08:49;95237.50;;;5.91;51.86
70127;BME280;57491;42.694;23.314;2023-02-02T07:11:16;95235.78;;;6.00;53.56
70127;BME280;57491;42.694;23.314;2023-02-02T07:13:44;95225.47;;;6.00;52.35
70127;BME280;57491;42.694;23.314;2023-02-02T07:16:11;95224.44;;;6.10;52.91
70127;BME280;57491;42.694;23.314;2023-02-02T07:18:40;95219.59;;;6.25;49.57
70127;BME280;57491;42.694;23.314;2023-02-02T07:21:15;95227.09;;;6.36;49.08
70127;BME280;57491;42.694;23.314;2023-02-02T07:23:42;95227.31;;;6.43;50.13
70127;BME280;57491;42.694;23.314;2023-02-02T07:26:09;95234.31;;;6.50;48.91
70127;BME280;57491;42.694;23.314;2023-02-02T07:28:37;95240.44;;;6.32;51.59
70127;BME280;57491;42.694;23.314;2023-02-02T07:31:17;95238.28;;;6.45;49.75
70127;BME280;57491;42.694;23.314;2023-02-02T07:33:47;95238.16;;;6.46;50.06
70127;BME280;57491;42.694;23.314;2023-02-02T07:36:17;95242.41;;;6.55;50.31
70127;BME280;57491;42.694;23.314;2023-02-02T07:38:46;95250.31;;;6.97;50.46
70127;BME280;57491;42.694;23.314;2023-02-02T07:41:14;95242.28;;;7.42;47.60
70127;BME280;57491;42.694;23.314;2023-02-02T07:43:41;95236.50;;;7.56;46.20
70127;BME280;57491;42.694;23.314;2023-02-02T07:46:09;95231.50;;;7.55;45.57
70127;BME280;57491;42.694;23.314;2023-02-02T07:48:38;95221.50;;;7.68;47.76
70127;BME280;57491;42.694;23.314;2023-02-02T07:51:08;95219.44;;;7.80;45.26
70127;BME280;57491;42.694;23.314;2023-02-02T07:53:37;95215.47;;;8.10;47.00
70127;BME280;57491;42.694;23.314;2023-02-02T07:56:08;95204.47;;;8.56;45.79
70127;BME280;57491;42.694;23.314;2023-02-02T07:58:35;95200.03;;;8.97;43.68
70127;BME280;57491;42.694;23.314;2023-02-02T08:01:03;95205.88;;;9.46;42.43
70127;BME280;57491;42.694;23.314;2023-02-02T08:03:30;95200.09;;;9.98;42.77
70127;BME280;57491;42.694;23.314;2023-02-02T08:05:58;95193.84;;;10.75;39.84
70127;BME280;57491;42.694;23.314;2023-02-02T08:08:27;95198.94;;;11.21;38.60
70127;BME280;57491;42.694;23.314;2023-02-02T08:10:54;95192.44;;;11.75;37.19
70127;BME280;57491;42.694;23.314;2023-02-02T08:13:21;95199.75;;;12.22;35.78
70127;BME280;57491;42.694;23.314;2023-02-02T08:15:48;95200.63;;;12.50;36.13
70127;BME280;57491;42.694;23.314;2023-02-02T08:18:15;95192.38;;;13.03;33.94
70127;BME280;57491;42.694;23.314;2023-02-02T08:20:42;95193.84;;;13.39;32.94
70127;BME280;57491;42.694;23.314;2023-02-02T08:23:09;95187.81;;;13.39;32.76
70127;BME280;57491;42.694;23.314;2023-02-02T08:25:41;95186.94;;;13.25;33.32
70127;BME280;57491;42.694;23.314;2023-02-02T08:28:08;95187.69;;;13.54;33.12
70127;BME280;57491;42.694;23.314;2023-02-02T08:30:35;95179.03;;;14.07;32.42
70127;BME280;57491;42.694;23.314;2023-02-02T08:33:03;95182.16;;;14.57;32.34
70127;BME280;57491;42.694;23.314;2023-02-02T08:35:30;95170.28;;;14.67;31.64
70127;BME280;57491;42.694;23.314;2023-02-02T08:37:57;95176.50;;;15.06;30.90
70127;BME280;57491;42.694;23.314;2023-02-02T08:40:27;95175.84;;;15.30;30.76
70127;BME280;57491;42.694;23.314;2023-02-02T08:42:56;95176.47;;;15.90;30.38
70127;BME280;57491;42.694;23.314;2023-02-02T08:45:23;95174.00;;;16.01;29.87
70127;BME280;57491;42.694;23.314;2023-02-02T08:47:50;95167.31;;;16.05;29.08
70127;BME280;57491;42.694;23.314;2023-02-02T08:50:18;95160.25;;;16.06;27.36
70127;BME280;57491;42.694;23.314;2023-02-02T08:52:45;95150.75;;;15.67;29.53
70127;BME280;57491;42.694;23.314;2023-02-02T08:55:12;95139.34;;;15.42;30.47
70127;BME280;57491;42.694;23.314;2023-02-02T08:57:39;95141.72;;;15.50;29.62
70127;BME280;57491;42.694;23.314;2023-02-02T09:00:09;95153.84;;;15.57;27.46
70127;BME280;57491;42.694;23.314;2023-02-02T09:02:36;95145.47;;;15.80;28.29
70127;BME280;57491;42.694;23.314;2023-02-02T09:05:04;95154.47;;;15.91;27.26
70127;BME280;57491;42.694;23.314;2023-02-02T09:07:31;95151.03;;;15.52;28.12
70127;BME280;57491;42.694;23.314;2023-02-02T09:09:58;95145.72;;;14.95;28.46
70127;BME280;57491;42.694;23.314;2023-02-02T09:12:26;95145.09;;;14.73;30.72
70127;BME280;57491;42.694;23.314;2023-02-02T09:14:53;95131.22;;;14.59;30.44
70127;BME280;57491;42.694;23.314;2023-02-02T09:17:21;95137.88;;;14.49;29.41
70127;BME280;57491;42.694;23.314;2023-02-02T09:19:49;95133.59;;;14.21;30.08
70127;BME280;57491;42.694;23.314;2023-02-02T09:22:16;95136.56;;;13.92;31.04
70127;BME280;57491;42.694;23.314;2023-02-02T09:24:43;95150.47;;;13.99;30.83
70127;BME280;57491;42.694;23.314;2023-02-02T09:27:10;95140.50;;;14.62;30.87
70127;BME280;57491;42.694;23.314;2023-02-02T09:29:37;95137.25;;;15.63;29.31
70127;BME280;57491;42.694;23.314;2023-02-02T09:32:04;95130.16;;;16.08;28.05
70127;BME280;57491;42.694;23.314;2023-02-02T09:34:33;95126.75;;;16.89;27.46
70127;BME280;57491;42.694;23.314;2023-02-02T09:37:00;95116.19;;;17.87;26.29
70127;BME280;57491;42.694;23.314;2023-02-02T09:39:27;95111.59;;;18.53;24.64
70127;BME280;57491;42.694;23.314;2023-02-02T09:42:27;95115.22;;;18.41;24.29
70127;BME280;57491;42.694;23.314;2023-02-02T09:45:13;95126.06;;;17.55;25.13
70127;BME280;57491;42.694;23.314;2023-02-02T09:47:51;95123.63;;;15.93;27.04
70127;BME280;57491;42.694;23.314;2023-02-02T09:50:33;95114.59;;;16.14;27.37
70127;BME280;57491;42.694;23.314;2023-02-02T09:53:10;95109.94;;;17.15;26.53
70127;BME280;57491;42.694;23.314;2023-02-02T09:55:40;95097.47;;;18.48;24.59
70127;BME280;57491;42.694;23.314;2023-02-02T09:58:13;95098.69;;;18.75;24.05
70127;BME280;57491;42.694;23.314;2023-02-02T10:00:46;95091.38;;;19.92;22.66
70127;BME280;57491;42.694;23.314;2023-02-02T10:03:20;95091.91;;;19.77;22.27
70127;BME280;57491;42.694;23.314;2023-02-02T10:05:53;95081.19;;;20.57;22.51
70127;BME280;57491;42.694;23.314;2023-02-02T10:08:30;95094.22;;;20.47;21.68
70127;BME280;57491;42.694;23.314;2023-02-02T10:10:59;95096.94;;;20.85;20.92
70127;BME280;57491;42.694;23.314;2023-02-02T10:13:31;95094.78;;;20.82;20.79
70127;BME280;57491;42.694;23.314;2023-02-02T10:16:05;95089.25;;;20.34;22.22
70127;BME280;57491;42.694;23.314;2023-02-02T10:18:40;95080.00;;;20.20;21.28
70127;BME280;57491;42.694;23.314;2023-02-02T10:21:19;95077.81;;;20.45;21.58
70127;BME280;57491;42.694;23.314;2023-02-02T10:23:49;95072.94;;;20.70;20.97
70127;BME280;57491;42.694;23.314;2023-02-02T10:26:19;95065.97;;;19.46;22.21
70127;BME280;57491;42.694;23.314;2023-02-02T10:29:06;95063.47;;;18.46;23.71
70127;BME280;57491;42.694;23.314;2023-02-02T10:31:41;95063.41;;;18.88;23.74
70127;BME280;57491;42.694;23.314;2023-02-02T10:34:15;95048.75;;;19.55;22.52
70127;BME280;57491;42.694;23.314;2023-02-02T10:36:58;95056.53;;;20.52;21.32
70127;BME280;57491;42.694;23.314;2023-02-02T10:39:39;95055.81;;;20.56;21.65
70127;BME280;57491;42.694;23.314;2023-02-02T10:42:18;95043.25;;;19.85;21.60
70127;BME280;57491;42.694;23.314;2023-02-02T10:44:51;95032.41;;;18.55;22.91
70127;BME280;57491;42.694;23.314;2023-02-02T10:47:24;95019.13;;;17.97;23.32
70127;BME280;57491;42.694;23.314;2023-02-02T10:50:00;95018.22;;;17.61;24.22
70127;BME280;57491;42.694;23.314;2023-02-02T10:52:31;95013.16;;;17.90;24.12
70127;BME280;57491;42.694;23.314;2023-02-02T10:55:02;95002.28;;;19.14;23.08
70127;BME280;57491;42.694;23.314;2023-02-02T10:57:46;95001.63;;;20.37;22.43
70127;BME280;57491;42.694;23.314;2023-02-02T11:00:20;95001.22;;;22.56;19.65
70127;BME280;57491;42.694;23.314;2023-02-02T11:02:47;95003.47;;;23.21;18.08
70127;BME280;57491;42.694;23.314;2023-02-02T11:05:21;95000.47;;;23.70;18.21
70127;BME280;57491;42.694;23.314;2023-02-02T11:08:13;94983.09;;;22.80;19.20
70127;BME280;57491;42.694;23.314;2023-02-02T11:10:42;94979.28;;;24.15;18.86
70127;BME280;57491;42.694;23.314;2023-02-02T11:13:15;94989.69;;;25.42;17.24
70127;BME280;57491;42.694;23.314;2023-02-02T11:15:42;94987.34;;;26.57;15.41
70127;BME280;57491;42.694;23.314;2023-02-02T11:18:23;94976.00;;;25.73;16.89
70127;BME280;57491;42.694;23.314;2023-02-02T11:20:52;94979.78;;;26.06;15.41
70127;BME280;57491;42.694;23.314;2023-02-02T11:23:22;94981.09;;;25.65;15.86
70127;BME280;57491;42.694;23.314;2023-02-02T11:25:57;94976.72;;;25.35;15.60
70127;BME280;57491;42.694;23.314;2023-02-02T11:28:26;94967.25;;;24.99;16.39
70127;BME280;57491;42.694;23.314;2023-02-02T11:30:56;94955.94;;;25.86;15.41
70127;BME280;57491;42.694;23.314;2023-02-02T11:33:29;94964.31;;;25.05;15.93
70127;BME280;57491;42.694;23.314;2023-02-02T11:35:59;94949.38;;;23.27;17.37
70127;BME280;57491;42.694;23.314;2023-02-02T11:38:28;94956.16;;;23.75;16.85
70127;BME280;57491;42.694;23.314;2023-02-02T11:40:58;94939.19;;;24.12;17.06
70127;BME280;57491;42.694;23.314;2023-02-02T11:43:29;94944.00;;;25.29;15.61
70127;BME280;57491;42.694;23.314;2023-02-02T11:46:00;94939.41;;;26.81;14.78
70127;BME280;57491;42.694;23.314;2023-02-02T11:48:31;94931.84;;;26.64;15.45
70127;BME280;57491;42.694;23.314;2023-02-02T11:51:00;94943.31;;;26.36;15.99
70127;BME280;57491;42.694;23.314;2023-02-02T11:53:31;94932.66;;;26.64;15.76
70127;BME280;57491;42.694;23.314;2023-02-02T11:56:01;94931.53;;;26.94;14.93
70127;BME280;57491;42.694;23.314;2023-02-02T11:58:42;94924.03;;;27.39;14.56
70127;BME280;57491;42.694;23.314;2023-02-02T12:01:23;94919.69;;;27.48;14.54
70127;BME280;57491;42.694;23.314;2023-02-02T12:03:51;94915.28;;;26.67;14.64
70127;BME280;57491;42.694;23.314;2023-02-02T12:06:20;94928.25;;;25.33;15.76
70127;BME280;57491;42.694;23.314;2023-02-02T12:08:50;94922.81;;;25.97;15.79
70127;BME280;57491;42.694;23.314;2023-02-02T12:11:29;94926.41;;;26.74;15.17
70127;BME280;57491;42.694;23.314;2023-02-02T12:14:10;94918.75;;;26.39;15.68
70127;BME280;57491;42.694;23.314;2023-02-02T12:16:51;94928.19;;;24.79;16.57
70127;BME280;57491;42.694;23.314;2023-02-02T12:19:46;94917.81;;;22.68;18.61
70127;BME280;57491;42.694;23.314;2023-02-02T12:22:27;94928.19;;;20.72;20.39
70127;BME280;57491;42.694;23.314;2023-02-02T12:25:02;94912.97;;;18.61;22.75
70127;BME280;57491;42.694;23.314;2023-02-02T12:27:38;94922.84;;;17.13;25.11
70127;BME280;57491;42.694;23.314;2023-02-02T12:30:22;94925.63;;;16.70;26.53
70127;BME280;57491;42.694;23.314;2023-02-02T12:33:11;94931.41;;;15.92;25.23
70127;BME280;57491;42.694;23.314;2023-02-02T12:36:06;94936.53;;;15.18;26.19
70127;BME280;57491;42.694;23.314;2023-02-02T12:38:50;94932.47;;;14.20;27.30
70127;BME280;57491;42.694;23.314;2023-02-02T12:41:37;94928.91;;;13.68;29.62
70127;BME280;57491;42.694;23.314;2023-02-02T12:44:13;94924.88;;;13.59;30.70
70127;BME280;57491;42.694;23.314;2023-02-02T12:46:52;94929.50;;;13.51;31.35
70127;BME280;57491;42.694;23.314;2023-02-02T12:52:28;94921.34;;;13.00;28.38
70127;BME280;57491;42.694;23.314;2023-02-02T12:55:15;94922.41;;;12.58;29.32
70127;BME280;57491;42.694;23.314;2023-02-02T12:57:54;94920.31;;;12.33;29.25
70127;BME280;57491;42.694;23.314;2023-02-02T13:00:32;94921.31;;;12.32;31.48
70127;BME280;57491;42.694;23.314;2023-02-02T13:03:19;94905.44;;;12.34;30.32
70127;BME280;57491;42.694;23.314;2023-02-02T13:05:58;94922.00;;;12.13;30.17
70127;BME280;57491;42.694;23.314;2023-02-02T13:08:32;94918.56;;;12.06;32.71
70127;BME280;57491;42.694;23.314;2023-02-02T13:11:04;94912.19;;;12.63;30.45
70127;BME280;57491;42.694;23.314;2023-02-02T13:13:56;94921.34;;;13.00;28.94
70127;BME280;57491;42.694;23.314;2023-02-02T13:16:25;94926.50;;;12.73;28.94
70127;BME280;57491;42.694;23.314;2023-02-02T13:18:55;94916.72;;;12.41;30.01
70127;BME280;57491;42.694;23.314;2023-02-02T13:21:26;94925.31;;;12.35;33.87